Terminal Aerodrome Forecast
Issued by NWS North Platte, NE

Home | Current Version | Previous Version | Text Only | Print | Product List | Glossary On
Versions: 1 2 3 4 5 6 7 8 9 10 11 12 13 14 15 16 17 18
636
FTUS43 KLBF 232341
TAFLBF
TAF
KLBF 232341Z 2400/2424 02015G23KT 1 1/2SM -SN BLSN SCT015 OVC025
      TEMPO 2400/2404 1SM -SN BLSN OVC015
     FM240600 35015G25KT 1 1/2SM -SN OVC010
     FM241200 35015G25KT 5SM -SN BLSN OVC010
     FM241800 35013G21KT P6SM OVC020=

USA.gov is the U.S. government's official web portal to all federal, state and local government web resources and services.